createdAt,value
2022-09-12T00:01:20.642Z,100035.53
2022-09-12T00:03:48.471Z,100040.47
2022-09-12T00:06:25.302Z,100029.47
2022-09-12T00:08:59.182Z,100038.19
2022-09-12T00:11:39.459Z,100036.38
2022-09-12T00:14:09.091Z,100034.44
2022-09-12T00:16:40.140Z,100036.38
2022-09-12T00:19:08.859Z,100036.00
2022-09-12T00:21:38.829Z,100036.00
2022-09-12T00:24:07.362Z,100037.59
2022-09-12T00:26:35.407Z,100042.16
2022-09-12T00:29:02.946Z,100037.94
2022-09-12T00:31:30.809Z,100039.63
2022-09-12T00:34:00.945Z,100039.78
2022-09-12T00:36:30.342Z,100040.25
2022-09-12T00:38:58.585Z,100035.16
2022-09-12T00:41:33.295Z,100029.59
2022-09-12T00:44:23.589Z,100031.06
2022-09-12T00:47:16.585Z,100023.94
2022-09-12T00:49:56.430Z,100022.84
2022-09-12T00:52:36.041Z,100029.00
2022-09-12T00:55:12.569Z,100039.16
2022-09-12T00:57:57.924Z,100032.72
2022-09-12T01:00:28.195Z,100024.53
2022-09-12T01:03:02.275Z,100021.88
2022-09-12T01:05:34.142Z,100020.78
2022-09-12T01:08:03.920Z,100024.66
2022-09-12T01:10:34.718Z,100022.34
2022-09-12T01:13:06.204Z,100021.28
2022-09-12T01:15:36.725Z,100028.78
2022-09-12T01:18:10.155Z,100028.38
2022-09-12T01:20:46.827Z,100029.59
2022-09-12T01:23:39.315Z,100021.75
2022-09-12T01:26:42.837Z,100022.22
2022-09-12T01:29:32.516Z,100026.44
2022-09-12T01:32:15.795Z,100020.06
2022-09-12T01:34:53.969Z,100014.88
2022-09-12T01:37:34.312Z,100010.41
2022-09-12T01:40:16.346Z,100007.84
2022-09-12T01:43:00.005Z,100004.19
2022-09-12T01:45:41.318Z,100009.78
2022-09-12T01:48:22.852Z,100007.84
2022-09-12T01:51:03.946Z,100005.66
2022-09-12T01:53:56.950Z,100004.31
2022-09-12T01:56:28.385Z,100004.19
2022-09-12T01:59:09.698Z,99997.41
2022-09-12T02:01:48.728Z,99999.22
2022-09-12T02:04:20.991Z,100006.97
2022-09-12T02:06:48.790Z,100011.94
2022-09-12T02:09:47.092Z,100012.69
2022-09-12T02:12:24.814Z,100012.41
2022-09-12T02:14:59.792Z,99999.13
2022-09-12T02:17:28.447Z,100008.56
2022-09-12T02:20:03.160Z,99998.75
2022-09-12T02:22:32.156Z,99996.94
2022-09-12T02:25:01.326Z,99996.09
2022-09-12T02:27:46.799Z,99996.66
2022-09-12T02:30:16.638Z,99995.84
2022-09-12T02:33:01.958Z,99997.31
2022-09-12T02:35:44.470Z,99993.44
2022-09-12T02:38:20.290Z,99991.34
2022-09-12T02:40:47.835Z,99984.81
2022-09-12T02:43:15.495Z,99990.84
2022-09-12T02:45:43.105Z,99997.41
2022-09-12T02:48:20.455Z,99988.59
2022-09-12T02:50:48.206Z,99985.81
2022-09-12T02:53:18.210Z,99991.00
2022-09-12T02:55:45.910Z,99990.16
2022-09-12T02:58:18.744Z,100000.41
2022-09-12T03:01:08.175Z,100000.28
2022-09-12T03:03:52.460Z,99992.03
2022-09-12T03:07:01.646Z,100000.75
2022-09-12T03:09:53.933Z,99994.13
2022-09-12T03:12:55.565Z,100001.59
2022-09-12T03:16:01.763Z,99999.31
2022-09-12T03:18:51.151Z,100000.41
2022-09-12T03:21:41.216Z,100001.00
2022-09-12T03:24:11.748Z,100005.09
2022-09-12T03:26:57.851Z,100003.16
2022-09-12T03:29:27.489Z,100002.53
2022-09-12T03:31:57.140Z,100010.94
2022-09-12T03:34:27.788Z,100001.13
2022-09-12T03:36:56.086Z,100002.53
2022-09-12T03:39:28.065Z,100002.03
2022-09-12T03:41:56.034Z,100004.06
2022-09-12T03:44:24.895Z,99999.47
2022-09-12T03:46:52.408Z,100008.50
2022-09-12T03:49:19.877Z,100007.41
2022-09-12T03:51:47.449Z,100006.31
2022-09-12T03:54:14.919Z,100002.53
2022-09-12T03:56:42.426Z,100004.69
2022-09-12T03:59:10.280Z,99994.38
2022-09-12T04:01:38.527Z,99991.56
2022-09-12T04:04:05.963Z,99991.75
2022-09-12T04:06:33.503Z,99986.53
2022-09-12T04:09:01.291Z,99988.78
2022-09-12T04:11:29.384Z,99990.16
2022-09-12T04:13:56.856Z,99990.88
2022-09-12T04:16:24.341Z,99995.66
2022-09-12T04:18:51.842Z,99998.91
2022-09-12T04:21:21.923Z,100007.50
2022-09-12T04:23:49.641Z,100004.16
2022-09-12T04:26:19.260Z,99996.66
2022-09-12T04:28:47.835Z,99996.53
2022-09-12T04:31:20.775Z,100005.34
2022-09-12T04:33:53.307Z,100009.25
2022-09-12T04:36:21.034Z,100008.78
2022-09-12T04:38:49.940Z,100002.72
2022-09-12T04:41:28.537Z,99995.47
2022-09-12T04:43:58.946Z,99990.59
2022-09-12T04:46:26.659Z,99983.66
2022-09-12T04:48:56.851Z,99990.53
2022-09-12T04:51:28.745Z,99989.16
2022-09-12T04:53:59.060Z,99986.34
2022-09-12T04:56:27.703Z,99979.50
2022-09-12T04:58:58.439Z,99979.41
2022-09-12T05:01:28.334Z,99980.13
2022-09-12T05:03:56.384Z,99991.47
2022-09-12T05:06:26.316Z,99996.13
2022-09-12T05:08:56.183Z,99998.25
2022-09-12T05:11:36.820Z,100000.78
2022-09-12T05:14:14.828Z,99997.69
2022-09-12T05:16:46.058Z,100004.28
2022-09-12T05:19:16.914Z,100006.41
2022-09-12T05:21:44.430Z,100007.84
2022-09-12T05:24:12.170Z,99995.19
2022-09-12T05:26:39.852Z,100003.91
2022-09-12T05:29:07.418Z,99994.66
2022-09-12T05:31:36.682Z,99994.66
2022-09-12T05:34:04.750Z,99988.94
2022-09-12T05:36:32.284Z,99991.06
2022-09-12T05:39:00.656Z,99980.09
2022-09-12T05:41:33.928Z,99989.94
2022-09-12T05:44:11.089Z,99987.97
2022-09-12T05:46:41.711Z,99985.31
2022-09-12T05:49:12.476Z,99994.31
2022-09-12T05:51:44.023Z,99978.56
2022-09-12T05:54:14.988Z,99972.97
2022-09-12T05:56:44.227Z,99973.53
2022-09-12T05:59:14.953Z,99975.94
2022-09-12T06:01:43.367Z,99965.69
2022-09-12T06:04:12.177Z,99965.22
2022-09-12T06:06:42.611Z,99969.03
2022-09-12T06:09:10.280Z,99963.25
2022-09-12T06:11:41.129Z,99975.91
2022-09-12T06:14:11.033Z,99984.91
2022-09-12T06:16:39.779Z,99977.31
2022-09-12T06:19:13.139Z,99979.78
2022-09-12T06:21:41.283Z,99987.13
2022-09-12T06:24:09.746Z,99988.94
2022-09-12T06:26:37.269Z,99997.38
2022-09-12T06:29:05.078Z,99992.19
2022-09-12T06:31:37.935Z,100006.84
2022-09-12T06:34:07.590Z,100003.44
2022-09-12T06:36:40.923Z,99998.81
2022-09-12T06:39:15.123Z,99999.38
2022-09-12T06:41:44.220Z,100005.88
2022-09-12T06:44:21.250Z,100005.44
2022-09-12T06:46:49.109Z,100003.47
2022-09-12T06:49:17.928Z,99998.13
2022-09-12T06:51:45.436Z,100000.09
2022-09-12T06:54:15.427Z,99998.56
2022-09-12T06:56:43.148Z,100006.84
2022-09-12T06:59:10.768Z,100010.75
2022-09-12T07:01:38.428Z,100008.06
2022-09-12T07:04:06.167Z,100006.78
2022-09-12T07:06:39.930Z,100002.69
2022-09-12T07:09:11.314Z,99995.34
2022-09-12T07:11:40.578Z,99998.19
2022-09-12T07:14:12.120Z,100003.97
2022-09-12T07:16:39.851Z,100007.22
2022-09-12T07:19:08.507Z,100002.47
2022-09-12T07:21:40.026Z,100006.84
2022-09-12T07:24:10.253Z,100009.34
2022-09-12T07:26:40.596Z,100007.66
2022-09-12T07:29:35.940Z,100016.41
2022-09-12T07:32:05.668Z,100013.91
2022-09-12T07:34:33.984Z,100010.09
2022-09-12T07:37:01.572Z,100008.97
2022-09-12T07:39:29.127Z,100011.19
2022-09-12T07:41:57.434Z,100017.81
2022-09-12T07:44:25.495Z,100009.91
2022-09-12T07:46:52.989Z,100016.13
2022-09-12T07:49:20.487Z,100012.44
2022-09-12T07:51:48.919Z,100012.75
2022-09-12T07:54:16.872Z,99999.81
2022-09-12T07:56:45.953Z,100010.91
2022-09-12T07:59:13.727Z,100007.97
2022-09-12T08:01:41.718Z,100007.13
2022-09-12T08:04:09.241Z,100001.78
2022-09-12T08:06:37.090Z,99988.59
2022-09-12T08:09:05.784Z,99989.69
2022-09-12T08:11:34.203Z,99993.88
2022-09-12T08:14:03.185Z,100001.34
2022-09-12T08:16:32.255Z,99997.25
2022-09-12T08:19:04.509Z,100004.59
2022-09-12T08:21:34.193Z,100005.44
2022-09-12T08:24:06.017Z,100001.75
2022-09-12T08:26:34.970Z,99989.41
2022-09-12T08:29:04.241Z,99990.13
2022-09-12T08:31:37.035Z,99990.09
2022-09-12T08:34:06.033Z,99986.59
2022-09-12T08:36:34.052Z,99977.53
2022-09-12T08:39:05.286Z,99974.28
2022-09-12T08:41:37.943Z,99966.94
2022-09-12T08:44:14.571Z,99955.25
2022-09-12T08:47:05.326Z,99949.97
2022-09-12T08:49:42.636Z,99960.56
2022-09-12T08:52:18.901Z,99950.03
2022-09-12T08:54:46.927Z,99955.03
2022-09-12T08:57:16.027Z,99950.00
2022-09-12T08:59:45.623Z,99944.31
2022-09-12T09:02:31.728Z,99935.94
2022-09-12T09:05:38.089Z,99937.78
2022-09-12T09:08:14.418Z,99946.38
2022-09-12T09:10:58.799Z,99930.25
2022-09-12T09:14:05.399Z,99925.69
2022-09-12T09:16:41.272Z,99927.53
2022-09-12T09:19:17.484Z,99934.13
2022-09-12T09:21:59.410Z,99933.53
2022-09-12T09:24:38.095Z,99918.94
2022-09-12T09:27:37.299Z,99926.22
2022-09-12T09:30:16.770Z,99915.94
2022-09-12T09:32:50.546Z,99902.34
2022-09-12T09:35:27.978Z,99904.50
2022-09-12T09:38:26.547Z,99916.63
2022-09-12T09:41:12.438Z,99914.75
2022-09-12T09:43:40.252Z,99909.63
2022-09-12T09:46:08.141Z,99918.94
2022-09-12T09:48:40.850Z,99918.22
2022-09-12T09:51:09.460Z,99926.28
2022-09-12T09:53:56.565Z,99925.38
2022-09-12T09:56:29.014Z,99926.59
2022-09-12T09:58:57.190Z,99920.06
2022-09-12T10:01:27.552Z,99911.06
2022-09-12T10:03:56.468Z,99914.13
2022-09-12T10:06:30.995Z,99914.66
2022-09-12T10:09:15.098Z,99909.69
2022-09-12T10:11:45.820Z,99907.72
2022-09-12T10:14:28.588Z,99908.50
2022-09-12T10:16:57.551Z,99901.78
2022-09-12T10:19:35.353Z,99900.09
2022-09-12T10:22:04.387Z,99902.06
2022-09-12T10:24:41.260Z,99898.13
2022-09-12T10:27:33.770Z,99907.78
2022-09-12T10:30:03.280Z,99907.25
2022-09-12T10:32:38.425Z,99909.66
2022-09-12T10:35:16.031Z,99915.91
2022-09-12T10:37:57.365Z,99919.00
2022-09-12T10:40:28.198Z,99913.94
2022-09-12T10:42:58.269Z,99918.28
2022-09-12T10:45:37.658Z,99910.63
2022-09-12T10:48:31.763Z,99908.78
2022-09-12T10:51:00.981Z,99919.34
2022-09-12T10:53:40.882Z,99927.75
2022-09-12T10:56:16.897Z,99918.03
2022-09-12T10:59:22.987Z,99921.06
2022-09-12T11:02:02.956Z,99923.91
2022-09-12T11:04:56.721Z,99925.59
2022-09-12T11:07:39.489Z,99941.53
2022-09-12T11:10:26.950Z,99936.63
2022-09-12T11:13:16.487Z,99938.34
2022-09-12T11:16:23.127Z,99931.63
2022-09-12T11:19:04.214Z,99925.09
2022-09-12T11:21:50.515Z,99924.91
2022-09-12T11:24:27.149Z,99932.81
2022-09-12T11:27:03.928Z,99936.00
2022-09-12T11:29:45.788Z,99940.50
2022-09-12T11:32:37.790Z,99944.88
2022-09-12T11:35:31.387Z,99935.97
2022-09-12T11:38:13.148Z,99932.78
2022-09-12T11:41:01.878Z,99916.34
2022-09-12T11:43:48.152Z,99908.28
2022-09-12T11:46:31.079Z,99901.25
2022-09-12T11:49:08.167Z,99897.06
2022-09-12T11:51:41.274Z,99898.88
2022-09-12T11:54:12.223Z,99893.13
2022-09-12T11:56:56.520Z,99883.59
2022-09-12T11:59:30.231Z,99874.38
2022-09-12T12:02:00.390Z,99880.25
2022-09-12T12:04:37.732Z,99883.44
2022-09-12T12:07:10.614Z,99898.91
2022-09-12T12:09:50.562Z,99910.66
2022-09-12T12:12:25.970Z,99905.09
2022-09-12T12:14:55.623Z,99906.63
2022-09-12T12:17:27.097Z,99890.66
2022-09-12T12:20:07.689Z,99887.41
2022-09-12T12:22:36.279Z,99883.59
2022-09-12T12:25:13.021Z,99882.41
2022-09-12T12:28:34.885Z,99875.38
2022-09-12T12:31:03.434Z,99877.38
2022-09-12T12:33:30.973Z,99871.34
2022-09-12T12:36:03.299Z,99868.00
2022-09-12T12:38:36.261Z,99861.75
2022-09-12T12:41:19.068Z,99865.63
2022-09-12T12:43:56.227Z,99851.66
2022-09-12T12:46:29.457Z,99859.22
2022-09-12T12:49:26.989Z,99852.19
2022-09-12T12:51:54.507Z,99847.63
2022-09-12T12:54:40.628Z,99856.88
2022-09-12T12:57:41.523Z,99855.19
2022-09-12T13:00:28.257Z,99854.00
2022-09-12T13:02:58.261Z,99853.16
2022-09-12T13:05:29.522Z,99849.47
2022-09-12T13:08:03.585Z,99848.13
2022-09-12T13:10:32.528Z,99839.44
2022-09-12T13:13:05.390Z,99831.06
2022-09-12T13:15:36.058Z,99838.59
2022-09-12T13:18:33.416Z,99835.38
2022-09-12T13:21:10.400Z,99822.75
2022-09-12T13:23:38.202Z,99831.00
2022-09-12T13:26:12.511Z,99834.00
2022-09-12T13:28:40.515Z,99830.50
2022-09-12T13:31:10.933Z,99832.53
2022-09-12T13:33:49.751Z,99847.50
2022-09-12T13:36:32.348Z,99844.47
2022-09-12T13:39:22.071Z,99838.78
2022-09-12T13:41:49.419Z,99833.09
2022-09-12T13:44:22.300Z,99838.97
2022-09-12T13:46:51.671Z,99839.47
2022-09-12T13:49:37.119Z,99845.34
2022-09-12T13:52:20.122Z,99843.47
2022-09-12T13:54:51.909Z,99841.63
2022-09-12T13:57:41.311Z,99833.75
2022-09-12T14:00:19.663Z,99836.59
2022-09-12T14:02:48.558Z,99832.06
2022-09-12T14:05:25.722Z,99837.28
2022-09-12T14:07:54.540Z,99832.38
2022-09-12T14:10:33.006Z,99830.41
2022-09-12T14:13:11.836Z,99838.75
2022-09-12T14:15:43.920Z,99834.22
2022-09-12T14:18:23.428Z,99836.25
2022-09-12T14:20:56.145Z,99839.94
2022-09-12T14:23:33.304Z,99847.16
2022-09-12T14:26:09.770Z,99839.28
2022-09-12T14:28:39.572Z,99834.41
2022-09-12T14:31:12.980Z,99831.41
2022-09-12T14:33:54.729Z,99833.25
2022-09-12T14:36:41.832Z,99829.38
2022-09-12T14:39:38.030Z,99830.91
2022-09-12T14:42:16.665Z,99841.81
2022-09-12T14:44:53.485Z,99836.13
2022-09-12T14:47:27.394Z,99835.28
2022-09-12T14:49:55.131Z,99830.06
2022-09-12T14:52:29.803Z,99828.06
2022-09-12T14:55:19.875Z,99823.88
2022-09-12T14:57:48.020Z,99815.63
2022-09-12T15:00:22.376Z,99820.66
2022-09-12T15:02:52.278Z,99817.31
2022-09-12T15:05:25.871Z,99815.78
2022-09-12T15:08:02.237Z,99807.22
2022-09-12T15:10:37.824Z,99812.94
2022-09-12T15:13:06.267Z,99809.56
2022-09-12T15:15:33.883Z,99812.41
2022-09-12T15:18:06.250Z,99813.75
2022-09-12T15:20:37.748Z,99816.78
2022-09-12T15:23:10.611Z,99820.97
2022-09-12T15:25:38.167Z,99821.31
2022-09-12T15:28:17.596Z,99815.94
2022-09-12T15:30:46.650Z,99811.06
2022-09-12T15:33:14.629Z,99812.72
2022-09-12T15:35:42.328Z,99806.16
2022-09-12T15:38:09.828Z,99821.22
2022-09-12T15:40:37.344Z,99812.50
2022-09-12T15:43:05.095Z,99818.50
2022-09-12T15:45:34.508Z,99813.94
2022-09-12T15:48:03.464Z,99813.56
2022-09-12T15:50:31.152Z,99819.94
2022-09-12T15:52:58.917Z,99804.66
2022-09-12T15:55:32.322Z,99807.66
2022-09-12T15:58:04.846Z,99800.13
2022-09-12T16:00:36.201Z,99800.94
2022-09-12T16:03:04.182Z,99801.94
2022-09-12T16:05:31.958Z,99800.59
2022-09-12T16:07:59.663Z,99816.00
2022-09-12T16:10:31.276Z,99810.09
2022-09-12T16:12:59.799Z,99823.13
2022-09-12T16:15:27.414Z,99828.28
2022-09-12T16:17:54.892Z,99830.28
2022-09-12T16:20:25.981Z,99839.31
2022-09-12T16:22:53.676Z,99842.00
2022-09-12T16:25:21.131Z,99846.69
2022-09-12T16:27:48.731Z,99851.00
2022-09-12T16:30:16.381Z,99839.28
2022-09-12T16:32:45.139Z,99834.22
2022-09-12T16:35:12.962Z,99838.91
2022-09-12T16:37:40.780Z,99849.63
2022-09-12T16:40:09.803Z,99849.94
2022-09-12T16:42:41.823Z,99851.91
2022-09-12T16:45:12.235Z,99859.28
2022-09-12T16:47:39.674Z,99858.75
2022-09-12T16:50:07.912Z,99854.56
2022-09-12T16:52:35.636Z,99853.16
2022-09-12T16:55:04.640Z,99856.00
2022-09-12T16:57:33.023Z,99860.84
2022-09-12T17:00:00.630Z,99874.38
2022-09-12T17:02:28.126Z,99876.22
2022-09-12T17:04:55.776Z,99878.75
2022-09-12T17:07:23.279Z,99874.69
2022-09-12T17:09:51.465Z,99880.06
2022-09-12T17:12:18.990Z,99871.19
2022-09-12T17:14:46.434Z,99860.06
2022-09-12T17:17:13.992Z,99863.06
2022-09-12T17:19:43.433Z,99872.38
2022-09-12T17:22:10.932Z,99877.22
2022-09-12T17:24:39.446Z,99885.38
2022-09-12T17:27:06.901Z,99885.53
2022-09-12T17:29:36.980Z,99886.00
2022-09-12T17:32:05.966Z,99884.19
2022-09-12T17:34:33.561Z,99880.50
2022-09-12T17:37:01.131Z,99893.03
2022-09-12T17:39:28.615Z,99888.97
2022-09-12T17:41:57.628Z,99886.47
2022-09-12T17:44:30.262Z,99885.31
2022-09-12T17:46:57.858Z,99888.97
2022-09-12T17:49:25.821Z,99870.16
2022-09-12T17:51:56.203Z,99874.69
2022-09-12T17:54:24.559Z,99881.16
2022-09-12T17:56:53.188Z,99878.50
2022-09-12T17:59:24.805Z,99871.47
2022-09-12T18:02:11.104Z,99871.47
2022-09-12T18:04:40.713Z,99867.66
2022-09-12T18:07:09.219Z,99866.59
2022-09-12T18:09:37.497Z,99859.31
2022-09-12T18:12:06.039Z,99870.03
2022-09-12T18:14:33.725Z,99872.31
2022-09-12T18:17:02.301Z,99869.56
2022-09-12T18:19:29.875Z,99872.19
2022-09-12T18:21:57.675Z,99875.34
2022-09-12T18:24:26.522Z,99886.94
2022-09-12T18:26:56.684Z,99886.44
2022-09-12T18:29:28.110Z,99891.97
2022-09-12T18:31:56.635Z,99900.44
2022-09-12T18:34:24.151Z,99906.38
2022-09-12T18:36:54.965Z,99895.28
2022-09-12T18:39:26.860Z,99905.97
2022-09-12T18:41:55.379Z,99911.75
2022-09-12T18:44:22.901Z,99908.47
2022-09-12T18:46:50.598Z,99917.19
2022-09-12T18:49:18.737Z,99919.16
2022-09-12T18:51:46.356Z,99923.50
2022-09-12T18:54:14.649Z,99924.78
2022-09-12T18:56:47.866Z,99923.66
2022-09-12T18:59:18.033Z,99916.91
2022-09-12T19:01:46.311Z,99926.59
2022-09-12T19:04:14.495Z,99924.22
2022-09-12T19:06:47.168Z,99927.88
2022-09-12T19:09:17.707Z,99921.41
2022-09-12T19:11:50.128Z,99920.16
2022-09-12T19:14:22.611Z,99929.53
2022-09-12T19:16:52.138Z,99918.59
2022-09-12T19:19:20.660Z,99930.09
2022-09-12T19:21:48.242Z,99934.31
2022-09-12T19:24:17.204Z,99928.53
2022-09-12T19:26:45.114Z,99923.19
2022-09-12T19:29:16.717Z,99934.44
2022-09-12T19:31:45.322Z,99921.06
2022-09-12T19:34:13.791Z,99919.63
2022-09-12T19:36:46.340Z,99924.41
2022-09-12T19:39:16.659Z,99925.97
2022-09-12T19:41:45.047Z,99925.41
2022-09-12T19:44:13.279Z,99925.97
2022-09-12T19:46:42.083Z,99924.13
2022-09-12T19:49:11.292Z,99926.72
2022-09-12T19:51:39.986Z,99915.84
2022-09-12T19:54:07.906Z,99920.78
2022-09-12T19:56:35.571Z,99916.22
2022-09-12T19:59:03.201Z,99908.63
2022-09-12T20:01:30.902Z,99902.84
2022-09-12T20:03:58.993Z,99890.56
2022-09-12T20:06:27.540Z,99897.78
2022-09-12T20:08:55.614Z,99883.03
2022-09-12T20:11:24.516Z,99886.41
2022-09-12T20:14:03.780Z,99877.72
2022-09-12T20:16:33.569Z,99873.94
2022-09-12T20:19:07.038Z,99871.81
2022-09-12T20:21:36.508Z,99865.38
2022-09-12T20:24:12.852Z,99870.03
2022-09-12T20:26:41.639Z,99863.88
2022-09-12T20:29:10.157Z,99860.09
2022-09-12T20:31:40.676Z,99867.97
2022-09-12T20:34:17.047Z,99864.47
2022-09-12T20:36:45.850Z,99862.72
2022-09-12T20:39:21.991Z,99861.97
2022-09-12T20:41:50.116Z,99858.44
2022-09-12T20:44:17.969Z,99861.28
2022-09-12T20:46:45.630Z,99864.09
2022-09-12T20:49:13.227Z,99853.22
2022-09-12T20:51:40.714Z,99851.69
2022-09-12T20:54:08.277Z,99847.97
2022-09-12T20:56:37.243Z,99854.44
2022-09-12T20:59:06.430Z,99863.72
2022-09-12T21:01:34.514Z,99854.81
2022-09-12T21:04:02.604Z,99848.50
2022-09-12T21:06:31.603Z,99845.00
2022-09-12T21:08:59.922Z,99842.78
2022-09-12T21:11:28.665Z,99836.84
2022-09-12T21:13:56.526Z,99833.34
2022-09-12T21:16:24.320Z,99843.03
2022-09-12T21:18:58.115Z,99841.78
2022-09-12T21:21:26.731Z,99855.59
2022-09-12T21:23:58.556Z,99858.38
2022-09-12T21:26:26.297Z,99857.97
2022-09-12T21:28:53.864Z,99860.50
2022-09-12T21:31:21.675Z,99862.63
2022-09-12T21:33:50.445Z,99862.00
2022-09-12T21:36:18.278Z,99849.03
2022-09-12T21:38:45.828Z,99863.59
2022-09-12T21:41:15.503Z,99858.56
2022-09-12T21:43:44.063Z,99860.59
2022-09-12T21:46:11.859Z,99862.00
2022-09-12T21:48:40.488Z,99854.72
2022-09-12T21:51:08.388Z,99859.78
2022-09-12T21:53:36.743Z,99859.41
2022-09-12T21:56:07.210Z,99856.31
2022-09-12T21:58:35.611Z,99859.56
2022-09-12T22:01:05.839Z,99847.75
2022-09-12T22:03:33.685Z,99854.38
2022-09-12T22:06:04.791Z,99869.97
2022-09-12T22:08:36.222Z,99862.25
2022-09-12T22:11:08.024Z,99857.34
2022-09-12T22:13:41.654Z,99858.28
2022-09-12T22:16:09.901Z,99850.88
2022-09-12T22:18:38.256Z,99850.56
2022-09-12T22:21:09.779Z,99849.59
2022-09-12T22:23:56.071Z,99839.66
2022-09-12T22:26:24.162Z,99837.25
2022-09-12T22:28:51.681Z,99832.66
2022-09-12T22:31:19.309Z,99831.53
2022-09-12T22:33:47.228Z,99817.22
2022-09-12T22:36:14.947Z,99833.44
2022-09-12T22:38:42.563Z,99832.63
2022-09-12T22:41:11.953Z,99835.72
2022-09-12T22:43:39.588Z,99830.63
2022-09-12T22:46:08.926Z,99832.06
2022-09-12T22:48:38.228Z,99827.88
2022-09-12T22:51:06.246Z,99829.53
2022-09-12T22:53:34.444Z,99834.72
2022-09-12T22:56:02.517Z,99829.66
2022-09-12T22:58:30.096Z,99827.53
2022-09-12T23:00:57.726Z,99832.44
2022-09-12T23:03:25.526Z,99824.13
2022-09-12T23:05:53.029Z,99836.16
2022-09-12T23:08:20.544Z,99829.84
2022-09-12T23:10:50.802Z,99839.84
2022-09-12T23:13:18.378Z,99832.13
2022-09-12T23:15:46.044Z,99833.34
2022-09-12T23:18:13.617Z,99831.13
2022-09-12T23:20:41.103Z,99824.97
2022-09-12T23:23:09.728Z,99837.78
2022-09-12T23:25:37.420Z,99827.25
2022-09-12T23:28:05.162Z,99821.22
2022-09-12T23:30:33.416Z,99821.31
2022-09-12T23:33:02.343Z,99819.13
2022-09-12T23:35:29.976Z,99816.47
2022-09-12T23:37:57.874Z,99823.63
2022-09-12T23:40:25.372Z,99827.53
2022-09-12T23:42:53.032Z,99821.50
2022-09-12T23:45:20.512Z,99818.56
2022-09-12T23:47:48.034Z,99813.81
2022-09-12T23:50:15.606Z,99808.09
2022-09-12T23:52:43.250Z,99803.44
2022-09-12T23:55:10.876Z,99801.47
2022-09-12T23:57:39.491Z,99807.53
